Предлагаем Вашему вниманию английскую версию страницы: AUTOTAF.ME 36498 - aviation weather forecast Barshatas

AUTOTAF 36498 - авиапрогноз Баршатас

Сегодня рассвет 00:44 UTC, восход солнца 01:15 UTC,
местный полдень 06:30 UTC, заход солнца 11:45 UTC,
наступление темноты 12:17 UTC.

Краткий прогноз 36498 на 9 часов

AUTOTAF.ME 36498 212000Z 2121/2206 21004MPS CAVOK     
  FM220300 23007G14MPS 9999 VCSH BKN026CB 
  FM220600 24015G20MPS 9999 BKN027

Детальный прогноз 36498 на 24 часа

AUTOTAF.ME 36498 212000Z 2121/2221 21004MPS 9999 BKN220 TX10/2203Z TN04/2221Z   
  FM220300 23007G14MPS 9999 VCSH BKN026CB 
  FM220600 24015G20MPS 9999 BKN027 
  FM220900 26012G17MPS 9999 BKN016 
  FM221200 25007G12MPS 9999 BKN024 
  BECMG 2213/2215 24004MPS   
  BECMG 2219/2221 BKN120

Подробный табличный прогноз

Время (UTC) miniAUTOTAF на 3 ч WX FZLVL
M AGL
ICE TURB Т
(°С)
Тd
(°С)
f(%) QNH
(гПа)
WIND/T
18 21004MPS 9999 BKN221 2550 9 -6 35 1009 ...
21 21004MPS 9999 BKN220 2400 8 -5 40 1009 ...
22.10.2020
00 21004MPS 9999 OVC200 2250 8 -2 49 1009 ...
03 23007G14MPS 9999 VCSH BKN026CB VCSH 1800 MOD FL170/FL180 10 1 54 1010 ...
06 24015G20MPS 9999 BKN027 900 FBL FL70/FL190 MOD FL40/FL50 10 2 60 1011 ...
09 26012G17MPS 9999 BKN016 810 FBL FL50/FL70 MOD FL40/FL50 9 1 59 1013 ...
12 25007G12MPS 9999 BKN024 810 MOD FL70/FL80 MOD FL40/FL70 7 -4 45 1016 ...
15 24004MPS 9999 OVC050 720 MOD FL40/FL70 5 -6 44 1017 ...
18 22004MPS 9999 BKN050 810 MOD FL170/FL190 MOD FL50/FL70 5 -6 44 1017 ...
21 21004MPS 9999 BKN120 720 FBL FL170/FL190 MOD FL50/FL70 4 -4 55 1016 ...
23.10.2020
00 21005G10MPS 9999 BKN043 720 MOD FL70/FL80 MOD FL70/FL80 5 -4 54 1016 ...
03 24010G15MPS 9999 BKN027 480 MOD FL90/FL110 MOD FL40/FL50 5 -1 67 1016 ...
06 27006MPS 1500 SN BR OVC004 SN BR 240 MOD FL190/FL200 3 1 90 1016 ...
09 26007MPS 9999 -SN OVC010 -SN 480 FBL FL50/FL190 MOD FL40/FL50 6 -3 55 1016 ...
12 23008G13MPS 9999 BKN024 540 MOD FL50/FL60 MOD FL40/FL50 5 -5 49 1018 ...
15 23007G12MPS 9999 BKN028 480 FBL FL50/FL150 MOD FL40/FL50 5 -4 53 1020 ...


Широта 48.1°, долгота 78.4°, высота 647 м абс.
Средняя высота рельефа местности 620 м абс.
Прогнозы обновляются четыре раза в сутки: в 02, 08, 14, 20 ч всемирного времени.


Выбрать прогноз по другой модели Баршатас
Онлайн-сводка гроз по Баршатас (для РФ и ближнего зарубежья)
Карта фактических гроз в окрестностях Баршатас
Динамические прогностические карты (ventusky.com)
Прогностическая карта высоты нижней границы облаков по Баршатас (windy.com)
Выбрать другой город

Прогноз предназначен для личного научно-познавательного использования частными лицами
и не предназначен для принятия важных решений и выполнения реальных полётов воздушных судов

При копировании или ином использовании любых материалов данного сайта ссылка на © meteocenter.asia обязательна.

0.94/1.3